sensor_id;sensor_type;location;lat;lon;timestamp;P1;durP1;ratioP1;P2;durP2;ratioP2
70683;SDS011;58263;48.146;11.440;2024-01-06T00:02:14;8.43;;;5.35;;
70683;SDS011;58263;48.146;11.440;2024-01-06T00:04:39;6.97;;;4.90;;
70683;SDS011;58263;48.146;11.440;2024-01-06T00:07:04;8.00;;;5.37;;
70683;SDS011;58263;48.146;11.440;2024-01-06T00:09:29;9.70;;;5.03;;
70683;SDS011;58263;48.146;11.440;2024-01-06T00:11:55;7.83;;;4.80;;
70683;SDS011;58263;48.146;11.440;2024-01-06T00:14:20;5.83;;;4.40;;
70683;SDS011;58263;48.146;11.440;2024-01-06T00:16:45;7.57;;;5.20;;
70683;SDS011;58263;48.146;11.440;2024-01-06T00:19:10;6.93;;;4.97;;
70683;SDS011;58263;48.146;11.440;2024-01-06T00:21:36;7.97;;;4.93;;
70683;SDS011;58263;48.146;11.440;2024-01-06T00:24:01;7.03;;;5.30;;
70683;SDS011;58263;48.146;11.440;2024-01-06T00:26:26;7.17;;;5.00;;
70683;SDS011;58263;48.146;11.440;2024-01-06T00:28:52;7.60;;;5.28;;
70683;SDS011;58263;48.146;11.440;2024-01-06T00:31:17;8.80;;;5.70;;
70683;SDS011;58263;48.146;11.440;2024-01-06T00:33:43;8.23;;;5.80;;
70683;SDS011;58263;48.146;11.440;2024-01-06T00:36:08;7.68;;;5.55;;
70683;SDS011;58263;48.146;11.440;2024-01-06T00:38:34;6.68;;;5.10;;
70683;SDS011;58263;48.146;11.440;2024-01-06T00:41:00;8.48;;;5.60;;
70683;SDS011;58263;48.146;11.440;2024-01-06T00:43:25;6.80;;;5.20;;
70683;SDS011;58263;48.146;11.440;2024-01-06T00:45:50;8.97;;;5.53;;
70683;SDS011;58263;48.146;11.440;2024-01-06T00:48:16;8.00;;;5.40;;
70683;SDS011;58263;48.146;11.440;2024-01-06T00:50:41;6.83;;;5.17;;
70683;SDS011;58263;48.146;11.440;2024-01-06T00:53:06;9.17;;;5.43;;
70683;SDS011;58263;48.146;11.440;2024-01-06T00:55:31;7.67;;;5.37;;
70683;SDS011;58263;48.146;11.440;2024-01-06T00:57:57;7.17;;;5.03;;
70683;SDS011;58263;48.146;11.440;2024-01-06T01:00:22;10.60;;;6.50;;
70683;SDS011;58263;48.146;11.440;2024-01-06T01:02:47;9.60;;;5.60;;
70683;SDS011;58263;48.146;11.440;2024-01-06T01:05:13;7.55;;;5.75;;
70683;SDS011;58263;48.146;11.440;2024-01-06T01:07:38;9.20;;;5.37;;
70683;SDS011;58263;48.146;11.440;2024-01-06T01:10:03;7.83;;;5.30;;
70683;SDS011;58263;48.146;11.440;2024-01-06T01:12:29;8.23;;;5.25;;
70683;SDS011;58263;48.146;11.440;2024-01-06T01:14:55;8.23;;;5.50;;
70683;SDS011;58263;48.146;11.440;2024-01-06T01:17:20;8.37;;;5.17;;
70683;SDS011;58263;48.146;11.440;2024-01-06T01:19:45;6.77;;;4.80;;
70683;SDS011;58263;48.146;11.440;2024-01-06T01:22:11;7.05;;;5.30;;
70683;SDS011;58263;48.146;11.440;2024-01-06T01:24:36;7.68;;;5.13;;
70683;SDS011;58263;48.146;11.440;2024-01-06T01:27:02;10.20;;;5.93;;
70683;SDS011;58263;48.146;11.440;2024-01-06T01:29:27;8.82;;;6.18;;
70683;SDS011;58263;48.146;11.440;2024-01-06T01:31:52;7.77;;;5.50;;
70683;SDS011;58263;48.146;11.440;2024-01-06T01:34:18;8.60;;;6.07;;
70683;SDS011;58263;48.146;11.440;2024-01-06T01:36:43;10.27;;;6.23;;
70683;SDS011;58263;48.146;11.440;2024-01-06T01:39:08;8.65;;;6.10;;
70683;SDS011;58263;48.146;11.440;2024-01-06T01:41:34;11.00;;;6.15;;
70683;SDS011;58263;48.146;11.440;2024-01-06T01:44:00;7.97;;;5.35;;
70683;SDS011;58263;48.146;11.440;2024-01-06T01:46:25;6.90;;;4.77;;
70683;SDS011;58263;48.146;11.440;2024-01-06T01:48:53;6.47;;;4.90;;
70683;SDS011;58263;48.146;11.440;2024-01-06T01:51:20;7.97;;;5.45;;
70683;SDS011;58263;48.146;11.440;2024-01-06T01:53:45;7.00;;;4.78;;
70683;SDS011;58263;48.146;11.440;2024-01-06T01:56:10;7.63;;;4.93;;
70683;SDS011;58263;48.146;11.440;2024-01-06T01:58:36;7.22;;;5.03;;
70683;SDS011;58263;48.146;11.440;2024-01-06T02:01:02;7.97;;;5.07;;
70683;SDS011;58263;48.146;11.440;2024-01-06T02:03:28;6.85;;;4.50;;
70683;SDS011;58263;48.146;11.440;2024-01-06T02:05:55;6.10;;;4.82;;
70683;SDS011;58263;48.146;11.440;2024-01-06T02:08:20;8.33;;;5.00;;
70683;SDS011;58263;48.146;11.440;2024-01-06T02:10:46;7.18;;;5.07;;
70683;SDS011;58263;48.146;11.440;2024-01-06T02:13:11;7.30;;;4.83;;
70683;SDS011;58263;48.146;11.440;2024-01-06T02:15:37;7.28;;;4.95;;
70683;SDS011;58263;48.146;11.440;2024-01-06T02:18:03;7.63;;;5.15;;
70683;SDS011;58263;48.146;11.440;2024-01-06T02:20:29;9.55;;;5.30;;
70683;SDS011;58263;48.146;11.440;2024-01-06T02:22:55;7.05;;;5.05;;
70683;SDS011;58263;48.146;11.440;2024-01-06T02:25:21;8.00;;;5.03;;
70683;SDS011;58263;48.146;11.440;2024-01-06T02:27:47;8.38;;;5.32;;
70683;SDS011;58263;48.146;11.440;2024-01-06T02:30:12;7.30;;;5.20;;
70683;SDS011;58263;48.146;11.440;2024-01-06T02:32:38;8.47;;;5.03;;
70683;SDS011;58263;48.146;11.440;2024-01-06T02:35:03;8.37;;;6.30;;
70683;SDS011;58263;48.146;11.440;2024-01-06T02:37:28;7.63;;;5.35;;
70683;SDS011;58263;48.146;11.440;2024-01-06T02:39:53;8.70;;;5.80;;
70683;SDS011;58263;48.146;11.440;2024-01-06T02:42:19;6.97;;;5.27;;
70683;SDS011;58263;48.146;11.440;2024-01-06T02:44:44;9.45;;;5.78;;
70683;SDS011;58263;48.146;11.440;2024-01-06T02:47:10;8.90;;;5.90;;
70683;SDS011;58263;48.146;11.440;2024-01-06T02:49:35;7.30;;;4.93;;
70683;SDS011;58263;48.146;11.440;2024-01-06T02:52:00;6.87;;;4.87;;
70683;SDS011;58263;48.146;11.440;2024-01-06T02:54:25;7.47;;;4.97;;
70683;SDS011;58263;48.146;11.440;2024-01-06T02:56:51;6.67;;;4.73;;
70683;SDS011;58263;48.146;11.440;2024-01-06T02:59:16;7.90;;;5.33;;
70683;SDS011;58263;48.146;11.440;2024-01-06T03:01:41;7.23;;;4.70;;
70683;SDS011;58263;48.146;11.440;2024-01-06T03:04:06;6.57;;;4.07;;
70683;SDS011;58263;48.146;11.440;2024-01-06T03:06:33;6.15;;;4.40;;
70683;SDS011;58263;48.146;11.440;2024-01-06T03:08:58;6.07;;;3.97;;
70683;SDS011;58263;48.146;11.440;2024-01-06T03:11:24;5.93;;;4.07;;
70683;SDS011;58263;48.146;11.440;2024-01-06T03:13:49;6.37;;;4.30;;
70683;SDS011;58263;48.146;11.440;2024-01-06T03:16:14;5.10;;;3.93;;
70683;SDS011;58263;48.146;11.440;2024-01-06T03:18:39;6.90;;;4.40;;
70683;SDS011;58263;48.146;11.440;2024-01-06T03:21:05;5.67;;;3.63;;
70683;SDS011;58263;48.146;11.440;2024-01-06T03:23:30;4.30;;;3.13;;
70683;SDS011;58263;48.146;11.440;2024-01-06T03:25:55;3.67;;;2.83;;
70683;SDS011;58263;48.146;11.440;2024-01-06T03:28:20;4.77;;;3.10;;
70683;SDS011;58263;48.146;11.440;2024-01-06T03:30:46;4.13;;;2.80;;
70683;SDS011;58263;48.146;11.440;2024-01-06T03:33:11;4.07;;;2.77;;
70683;SDS011;58263;48.146;11.440;2024-01-06T03:35:37;3.53;;;2.70;;
70683;SDS011;58263;48.146;11.440;2024-01-06T03:38:02;3.65;;;3.00;;
70683;SDS011;58263;48.146;11.440;2024-01-06T03:40:28;4.15;;;2.70;;
70683;SDS011;58263;48.146;11.440;2024-01-06T03:42:53;4.40;;;3.17;;
70683;SDS011;58263;48.146;11.440;2024-01-06T03:45:18;4.35;;;3.10;;
70683;SDS011;58263;48.146;11.440;2024-01-06T03:47:44;4.80;;;3.50;;
70683;SDS011;58263;48.146;11.440;2024-01-06T03:50:09;2.93;;;2.63;;
70683;SDS011;58263;48.146;11.440;2024-01-06T03:52:35;4.05;;;3.10;;
70683;SDS011;58263;48.146;11.440;2024-01-06T03:55:00;4.53;;;3.10;;
70683;SDS011;58263;48.146;11.440;2024-01-06T03:57:25;3.53;;;2.70;;
70683;SDS011;58263;48.146;11.440;2024-01-06T03:59:50;3.47;;;2.70;;
70683;SDS011;58263;48.146;11.440;2024-01-06T04:02:16;2.47;;;2.10;;
70683;SDS011;58263;48.146;11.440;2024-01-06T04:04:41;2.40;;;2.20;;
70683;SDS011;58263;48.146;11.440;2024-01-06T04:07:06;2.33;;;1.80;;
70683;SDS011;58263;48.146;11.440;2024-01-06T04:09:31;2.17;;;1.98;;
70683;SDS011;58263;48.146;11.440;2024-01-06T04:11:57;1.90;;;1.80;;
70683;SDS011;58263;48.146;11.440;2024-01-06T04:14:22;2.97;;;1.60;;
70683;SDS011;58263;48.146;11.440;2024-01-06T04:16:48;4.27;;;1.87;;
70683;SDS011;58263;48.146;11.440;2024-01-06T04:19:13;1.70;;;1.50;;
70683;SDS011;58263;48.146;11.440;2024-01-06T04:21:40;1.98;;;1.77;;
70683;SDS011;58263;48.146;11.440;2024-01-06T04:24:05;1.38;;;1.27;;
70683;SDS011;58263;48.146;11.440;2024-01-06T04:26:30;1.02;;;1.00;;
70683;SDS011;58263;48.146;11.440;2024-01-06T04:28:56;0.97;;;0.97;;
70683;SDS011;58263;48.146;11.440;2024-01-06T04:31:21;1.00;;;1.00;;
70683;SDS011;58263;48.146;11.440;2024-01-06T04:33:46;1.30;;;0.93;;
70683;SDS011;58263;48.146;11.440;2024-01-06T04:36:11;0.90;;;0.90;;
70683;SDS011;58263;48.146;11.440;2024-01-06T04:38:37;0.70;;;0.70;;
70683;SDS011;58263;48.146;11.440;2024-01-06T04:41:02;0.57;;;0.57;;
70683;SDS011;58263;48.146;11.440;2024-01-06T04:43:27;0.73;;;0.73;;
70683;SDS011;58263;48.146;11.440;2024-01-06T04:45:53;0.60;;;0.60;;
70683;SDS011;58263;48.146;11.440;2024-01-06T04:48:18;0.73;;;0.73;;
70683;SDS011;58263;48.146;11.440;2024-01-06T04:50:44;1.17;;;1.00;;
70683;SDS011;58263;48.146;11.440;2024-01-06T04:53:09;0.60;;;0.60;;
70683;SDS011;58263;48.146;11.440;2024-01-06T04:55:34;0.77;;;0.77;;
70683;SDS011;58263;48.146;11.440;2024-01-06T04:57:59;0.80;;;0.80;;
70683;SDS011;58263;48.146;11.440;2024-01-06T05:00:24;0.70;;;0.70;;
70683;SDS011;58263;48.146;11.440;2024-01-06T05:02:50;0.80;;;0.80;;
70683;SDS011;58263;48.146;11.440;2024-01-06T05:05:16;0.60;;;0.60;;
70683;SDS011;58263;48.146;11.440;2024-01-06T05:07:41;1.10;;;0.97;;
70683;SDS011;58263;48.146;11.440;2024-01-06T05:10:07;1.13;;;1.03;;
70683;SDS011;58263;48.146;11.440;2024-01-06T05:12:32;1.17;;;1.08;;
70683;SDS011;58263;48.146;11.440;2024-01-06T05:14:57;1.27;;;0.77;;
70683;SDS011;58263;48.146;11.440;2024-01-06T05:17:23;1.13;;;0.70;;
70683;SDS011;58263;48.146;11.440;2024-01-06T05:19:48;0.93;;;0.93;;
70683;SDS011;58263;48.146;11.440;2024-01-06T05:22:13;0.70;;;0.70;;
70683;SDS011;58263;48.146;11.440;2024-01-06T05:24:39;0.67;;;0.67;;
70683;SDS011;58263;48.146;11.440;2024-01-06T05:27:04;0.60;;;0.60;;
70683;SDS011;58263;48.146;11.440;2024-01-06T05:29:29;0.30;;;0.30;;
70683;SDS011;58263;48.146;11.440;2024-01-06T05:31:54;0.70;;;0.70;;
70683;SDS011;58263;48.146;11.440;2024-01-06T05:34:20;0.90;;;0.77;;
70683;SDS011;58263;48.146;11.440;2024-01-06T05:36:45;0.50;;;0.50;;
70683;SDS011;58263;48.146;11.440;2024-01-06T05:39:10;0.97;;;0.97;;
70683;SDS011;58263;48.146;11.440;2024-01-06T05:41:39;0.47;;;0.47;;
70683;SDS011;58263;48.146;11.440;2024-01-06T05:44:04;0.30;;;0.30;;
70683;SDS011;58263;48.146;11.440;2024-01-06T05:46:30;0.68;;;0.68;;
70683;SDS011;58263;48.146;11.440;2024-01-06T05:48:56;0.25;;;0.25;;
70683;SDS011;58263;48.146;11.440;2024-01-06T05:51:21;0.50;;;0.50;;
70683;SDS011;58263;48.146;11.440;2024-01-06T05:53:47;0.45;;;0.45;;
70683;SDS011;58263;48.146;11.440;2024-01-06T05:56:21;0.40;;;0.40;;
70683;SDS011;58263;48.146;11.440;2024-01-06T05:58:49;3.13;;;2.03;;
70683;SDS011;58263;48.146;11.440;2024-01-06T06:01:14;1.47;;;1.37;;
70683;SDS011;58263;48.146;11.440;2024-01-06T06:03:39;0.50;;;0.50;;
70683;SDS011;58263;48.146;11.440;2024-01-06T06:06:05;0.60;;;0.60;;
70683;SDS011;58263;48.146;11.440;2024-01-06T06:08:30;0.70;;;0.70;;
70683;SDS011;58263;48.146;11.440;2024-01-06T06:10:55;0.37;;;0.37;;
70683;SDS011;58263;48.146;11.440;2024-01-06T06:13:27;0.50;;;0.50;;
70683;SDS011;58263;48.146;11.440;2024-01-06T06:15:53;0.82;;;0.82;;
70683;SDS011;58263;48.146;11.440;2024-01-06T06:18:20;1.30;;;1.20;;
70683;SDS011;58263;48.146;11.440;2024-01-06T06:20:45;1.20;;;0.88;;
70683;SDS011;58263;48.146;11.440;2024-01-06T06:23:10;1.60;;;0.60;;
70683;SDS011;58263;48.146;11.440;2024-01-06T06:25:37;0.80;;;0.80;;
70683;SDS011;58263;48.146;11.440;2024-01-06T06:28:03;0.90;;;0.88;;
70683;SDS011;58263;48.146;11.440;2024-01-06T06:30:28;2.05;;;1.10;;
70683;SDS011;58263;48.146;11.440;2024-01-06T06:32:54;0.70;;;0.70;;
70683;SDS011;58263;48.146;11.440;2024-01-06T06:35:19;2.53;;;1.23;;
70683;SDS011;58263;48.146;11.440;2024-01-06T06:37:44;2.27;;;1.50;;
70683;SDS011;58263;48.146;11.440;2024-01-06T06:40:10;1.10;;;1.10;;
70683;SDS011;58263;48.146;11.440;2024-01-06T06:42:35;3.08;;;1.55;;
70683;SDS011;58263;48.146;11.440;2024-01-06T06:45:00;1.70;;;1.13;;
70683;SDS011;58263;48.146;11.440;2024-01-06T06:47:26;1.90;;;1.30;;
70683;SDS011;58263;48.146;11.440;2024-01-06T06:49:51;1.57;;;1.40;;
70683;SDS011;58263;48.146;11.440;2024-01-06T06:52:16;1.47;;;1.30;;
70683;SDS011;58263;48.146;11.440;2024-01-06T06:54:41;1.50;;;1.27;;
70683;SDS011;58263;48.146;11.440;2024-01-06T06:57:07;4.17;;;1.73;;
70683;SDS011;58263;48.146;11.440;2024-01-06T06:59:32;1.97;;;1.40;;
70683;SDS011;58263;48.146;11.440;2024-01-06T07:01:57;1.83;;;1.43;;
70683;SDS011;58263;48.146;11.440;2024-01-06T07:04:22;1.70;;;1.50;;
70683;SDS011;58263;48.146;11.440;2024-01-06T07:06:48;4.20;;;1.92;;
70683;SDS011;58263;48.146;11.440;2024-01-06T07:09:13;5.80;;;3.30;;
70683;SDS011;58263;48.146;11.440;2024-01-06T07:11:39;10.93;;;6.73;;
70683;SDS011;58263;48.146;11.440;2024-01-06T07:14:04;5.37;;;3.20;;
70683;SDS011;58263;48.146;11.440;2024-01-06T07:16:29;5.83;;;2.53;;
70683;SDS011;58263;48.146;11.440;2024-01-06T07:18:54;13.63;;;5.10;;
70683;SDS011;58263;48.146;11.440;2024-01-06T07:21:20;6.73;;;2.87;;
70683;SDS011;58263;48.146;11.440;2024-01-06T07:23:45;2.60;;;2.13;;
70683;SDS011;58263;48.146;11.440;2024-01-06T07:26:10;4.10;;;1.70;;
70683;SDS011;58263;48.146;11.440;2024-01-06T07:28:36;3.17;;;1.80;;
70683;SDS011;58263;48.146;11.440;2024-01-06T07:31:01;3.13;;;1.90;;
70683;SDS011;58263;48.146;11.440;2024-01-06T07:33:26;3.37;;;1.83;;
70683;SDS011;58263;48.146;11.440;2024-01-06T07:35:51;3.17;;;1.70;;
70683;SDS011;58263;48.146;11.440;2024-01-06T07:38:17;2.33;;;1.80;;
70683;SDS011;58263;48.146;11.440;2024-01-06T07:40:42;3.97;;;1.90;;
70683;SDS011;58263;48.146;11.440;2024-01-06T07:43:09;1.70;;;1.60;;
70683;SDS011;58263;48.146;11.440;2024-01-06T07:45:34;2.90;;;1.85;;
70683;SDS011;58263;48.146;11.440;2024-01-06T07:47:59;2.73;;;2.10;;
70683;SDS011;58263;48.146;11.440;2024-01-06T07:50:25;2.13;;;1.58;;
70683;SDS011;58263;48.146;11.440;2024-01-06T07:52:51;1.90;;;1.67;;
70683;SDS011;58263;48.146;11.440;2024-01-06T07:55:17;1.93;;;1.63;;
70683;SDS011;58263;48.146;11.440;2024-01-06T07:57:43;2.70;;;1.52;;
70683;SDS011;58263;48.146;11.440;2024-01-06T08:00:09;1.98;;;1.42;;
70683;SDS011;58263;48.146;11.440;2024-01-06T08:02:35;7.75;;;3.40;;
70683;SDS011;58263;48.146;11.440;2024-01-06T08:05:00;3.17;;;1.90;;
70683;SDS011;58263;48.146;11.440;2024-01-06T08:07:25;2.57;;;1.60;;
70683;SDS011;58263;48.146;11.440;2024-01-06T08:09:51;3.00;;;1.90;;
70683;SDS011;58263;48.146;11.440;2024-01-06T08:12:16;5.60;;;2.10;;
70683;SDS011;58263;48.146;11.440;2024-01-06T08:14:41;4.23;;;1.53;;
70683;SDS011;58263;48.146;11.440;2024-01-06T08:17:06;3.60;;;1.53;;
70683;SDS011;58263;48.146;11.440;2024-01-06T08:19:32;2.77;;;2.10;;
70683;SDS011;58263;48.146;11.440;2024-01-06T08:21:58;5.35;;;1.90;;
70683;SDS011;58263;48.146;11.440;2024-01-06T08:24:23;1.98;;;1.70;;
70683;SDS011;58263;48.146;11.440;2024-01-06T08:26:49;1.63;;;1.48;;
70683;SDS011;58263;48.146;11.440;2024-01-06T08:29:15;3.88;;;1.95;;
70683;SDS011;58263;48.146;11.440;2024-01-06T08:31:41;2.17;;;1.77;;
70683;SDS011;58263;48.146;11.440;2024-01-06T08:34:06;2.27;;;1.97;;
70683;SDS011;58263;48.146;11.440;2024-01-06T08:36:32;3.38;;;1.50;;
70683;SDS011;58263;48.146;11.440;2024-01-06T08:38:58;2.97;;;1.67;;
70683;SDS011;58263;48.146;11.440;2024-01-06T08:41:23;1.60;;;1.50;;
70683;SDS011;58263;48.146;11.440;2024-01-06T08:43:49;3.53;;;1.80;;
70683;SDS011;58263;48.146;11.440;2024-01-06T08:46:14;2.80;;;1.73;;
70683;SDS011;58263;48.146;11.440;2024-01-06T08:48:39;3.13;;;1.83;;
70683;SDS011;58263;48.146;11.440;2024-01-06T08:51:04;12.37;;;7.13;;
70683;SDS011;58263;48.146;11.440;2024-01-06T08:53:30;8.55;;;3.05;;
70683;SDS011;58263;48.146;11.440;2024-01-06T08:55:56;2.92;;;2.05;;
70683;SDS011;58263;48.146;11.440;2024-01-06T08:58:21;6.22;;;3.72;;
70683;SDS011;58263;48.146;11.440;2024-01-06T09:00:46;4.73;;;3.10;;
70683;SDS011;58263;48.146;11.440;2024-01-06T09:03:12;4.83;;;2.40;;
70683;SDS011;58263;48.146;11.440;2024-01-06T09:05:37;6.13;;;3.45;;
70683;SDS011;58263;48.146;11.440;2024-01-06T09:08:02;9.50;;;4.63;;
70683;SDS011;58263;48.146;11.440;2024-01-06T09:10:28;9.60;;;3.22;;
70683;SDS011;58263;48.146;11.440;2024-01-06T09:12:54;14.07;;;5.60;;
70683;SDS011;58263;48.146;11.440;2024-01-06T09:15:20;6.28;;;3.13;;
70683;SDS011;58263;48.146;11.440;2024-01-06T09:17:45;5.00;;;2.30;;
70683;SDS011;58263;48.146;11.440;2024-01-06T09:20:10;4.57;;;2.95;;
70683;SDS011;58263;48.146;11.440;2024-01-06T09:22:36;7.93;;;2.80;;
70683;SDS011;58263;48.146;11.440;2024-01-06T09:25:01;11.47;;;5.60;;
70683;SDS011;58263;48.146;11.440;2024-01-06T09:27:26;17.45;;;7.93;;
70683;SDS011;58263;48.146;11.440;2024-01-06T09:29:52;8.90;;;4.47;;
70683;SDS011;58263;48.146;11.440;2024-01-06T09:32:17;9.63;;;2.67;;
70683;SDS011;58263;48.146;11.440;2024-01-06T09:34:42;24.50;;;10.33;;
70683;SDS011;58263;48.146;11.440;2024-01-06T09:37:07;3.07;;;1.77;;
70683;SDS011;58263;48.146;11.440;2024-01-06T09:39:33;3.57;;;1.83;;
70683;SDS011;58263;48.146;11.440;2024-01-06T09:41:58;5.40;;;3.13;;
70683;SDS011;58263;48.146;11.440;2024-01-06T09:44:23;6.55;;;2.80;;
70683;SDS011;58263;48.146;11.440;2024-01-06T09:46:49;9.40;;;4.05;;
70683;SDS011;58263;48.146;11.440;2024-01-06T09:49:15;7.40;;;3.45;;
70683;SDS011;58263;48.146;11.440;2024-01-06T09:51:48;5.90;;;3.13;;
70683;SDS011;58263;48.146;11.440;2024-01-06T09:54:16;6.15;;;2.80;;
70683;SDS011;58263;48.146;11.440;2024-01-06T09:56:47;4.32;;;1.98;;
70683;SDS011;58263;48.146;11.440;2024-01-06T09:59:13;1.75;;;1.65;;
70683;SDS011;58263;48.146;11.440;2024-01-06T10:01:39;4.55;;;2.33;;
70683;SDS011;58263;48.146;11.440;2024-01-06T10:04:04;3.70;;;2.30;;
70683;SDS011;58263;48.146;11.440;2024-01-06T10:06:30;3.47;;;2.10;;
70683;SDS011;58263;48.146;11.440;2024-01-06T10:08:55;4.07;;;2.20;;
70683;SDS011;58263;48.146;11.440;2024-01-06T10:11:22;1.97;;;1.60;;
70683;SDS011;58263;48.146;11.440;2024-01-06T10:13:50;2.67;;;2.00;;
70683;SDS011;58263;48.146;11.440;2024-01-06T10:16:16;4.88;;;2.08;;
70683;SDS011;58263;48.146;11.440;2024-01-06T10:18:42;5.22;;;2.05;;
70683;SDS011;58263;48.146;11.440;2024-01-06T10:21:09;4.35;;;2.08;;
70683;SDS011;58263;48.146;11.440;2024-01-06T10:23:34;3.33;;;2.10;;
70683;SDS011;58263;48.146;11.440;2024-01-06T10:26:01;2.47;;;2.00;;
70683;SDS011;58263;48.146;11.440;2024-01-06T10:28:27;6.20;;;3.05;;
70683;SDS011;58263;48.146;11.440;2024-01-06T10:30:54;13.73;;;8.38;;
70683;SDS011;58263;48.146;11.440;2024-01-06T10:33:20;6.47;;;4.50;;
70683;SDS011;58263;48.146;11.440;2024-01-06T10:35:48;10.32;;;9.25;;
70683;SDS011;58263;48.146;11.440;2024-01-06T10:38:14;6.15;;;4.95;;
70683;SDS011;58263;48.146;11.440;2024-01-06T10:40:40;3.92;;;3.33;;
70683;SDS011;58263;48.146;11.440;2024-01-06T10:43:21;3.53;;;2.97;;
70683;SDS011;58263;48.146;11.440;2024-01-06T10:45:50;5.55;;;3.30;;
70683;SDS011;58263;48.146;11.440;2024-01-06T10:48:16;6.25;;;3.20;;
70683;SDS011;58263;48.146;11.440;2024-01-06T10:50:43;5.32;;;2.88;;
70683;SDS011;58263;48.146;11.440;2024-01-06T10:53:09;5.30;;;2.80;;
70683;SDS011;58263;48.146;11.440;2024-01-06T10:55:36;4.20;;;2.45;;
70683;SDS011;58263;48.146;11.440;2024-01-06T10:58:03;4.63;;;2.53;;
70683;SDS011;58263;48.146;11.440;2024-01-06T11:00:30;4.68;;;2.60;;
70683;SDS011;58263;48.146;11.440;2024-01-06T11:02:56;6.43;;;2.60;;
70683;SDS011;58263;48.146;11.440;2024-01-06T11:05:21;3.35;;;2.55;;
70683;SDS011;58263;48.146;11.440;2024-01-06T11:07:47;2.90;;;2.20;;
70683;SDS011;58263;48.146;11.440;2024-01-06T11:10:16;7.55;;;3.20;;
70683;SDS011;58263;48.146;11.440;2024-01-06T11:12:43;5.65;;;2.60;;
70683;SDS011;58263;48.146;11.440;2024-01-06T11:15:09;4.65;;;2.47;;
70683;SDS011;58263;48.146;11.440;2024-01-06T11:17:50;5.97;;;2.63;;
70683;SDS011;58263;48.146;11.440;2024-01-06T11:20:18;5.80;;;2.47;;
70683;SDS011;58263;48.146;11.440;2024-01-06T11:22:43;3.15;;;2.35;;
70683;SDS011;58263;48.146;11.440;2024-01-06T11:25:14;6.80;;;2.63;;
70683;SDS011;58263;48.146;11.440;2024-01-06T11:27:42;7.65;;;3.35;;
70683;SDS011;58263;48.146;11.440;2024-01-06T11:30:09;11.88;;;6.28;;
70683;SDS011;58263;48.146;11.440;2024-01-06T11:35:12;7.65;;;3.30;;
70683;SDS011;58263;48.146;11.440;2024-01-06T11:40:22;3.77;;;2.23;;
70683;SDS011;58263;48.146;11.440;2024-01-06T11:42:56;9.98;;;3.38;;
70683;SDS011;58263;48.146;11.440;2024-01-06T11:45:24;7.20;;;2.72;;
70683;SDS011;58263;48.146;11.440;2024-01-06T11:47:50;7.55;;;2.60;;
70683;SDS011;58263;48.146;11.440;2024-01-06T11:50:20;3.40;;;2.80;;
70683;SDS011;58263;48.146;11.440;2024-01-06T11:52:46;7.30;;;3.13;;
70683;SDS011;58263;48.146;11.440;2024-01-06T11:55:11;54.53;;;21.47;;
70683;SDS011;58263;48.146;11.440;2024-01-06T11:57:37;13.48;;;6.43;;
70683;SDS011;58263;48.146;11.440;2024-01-06T12:00:02;6.53;;;3.87;;
70683;SDS011;58263;48.146;11.440;2024-01-06T12:02:29;6.15;;;3.65;;
70683;SDS011;58263;48.146;11.440;2024-01-06T12:04:54;5.23;;;3.63;;
70683;SDS011;58263;48.146;11.440;2024-01-06T12:07:20;6.03;;;3.80;;
70683;SDS011;58263;48.146;11.440;2024-01-06T12:09:50;5.70;;;3.30;;
70683;SDS011;58263;48.146;11.440;2024-01-06T12:12:25;6.07;;;3.08;;
70683;SDS011;58263;48.146;11.440;2024-01-06T12:14:50;3.53;;;3.00;;
70683;SDS011;58263;48.146;11.440;2024-01-06T12:17:16;4.88;;;2.78;;
70683;SDS011;58263;48.146;11.440;2024-01-06T12:19:41;4.20;;;3.40;;
70683;SDS011;58263;48.146;11.440;2024-01-06T12:22:09;6.35;;;3.63;;
70683;SDS011;58263;48.146;11.440;2024-01-06T12:24:36;4.57;;;3.00;;
70683;SDS011;58263;48.146;11.440;2024-01-06T12:27:01;5.73;;;3.30;;
70683;SDS011;58263;48.146;11.440;2024-01-06T12:29:27;5.35;;;3.08;;
70683;SDS011;58263;48.146;11.440;2024-01-06T12:31:59;4.38;;;3.13;;
70683;SDS011;58263;48.146;11.440;2024-01-06T12:34:25;3.03;;;2.30;;
70683;SDS011;58263;48.146;11.440;2024-01-06T12:36:54;5.65;;;3.08;;
70683;SDS011;58263;48.146;11.440;2024-01-06T12:39:23;4.15;;;2.35;;
70683;SDS011;58263;48.146;11.440;2024-01-06T12:41:52;5.70;;;2.78;;
70683;SDS011;58263;48.146;11.440;2024-01-06T12:44:17;3.43;;;2.60;;
70683;SDS011;58263;48.146;11.440;2024-01-06T12:46:43;4.60;;;2.70;;
70683;SDS011;58263;48.146;11.440;2024-01-06T12:49:08;7.30;;;3.10;;
70683;SDS011;58263;48.146;11.440;2024-01-06T12:51:33;9.57;;;3.75;;
70683;SDS011;58263;48.146;11.440;2024-01-06T12:53:59;5.38;;;3.60;;
70683;SDS011;58263;48.146;11.440;2024-01-06T12:56:25;6.37;;;2.70;;
70683;SDS011;58263;48.146;11.440;2024-01-06T12:58:50;6.97;;;3.73;;
70683;SDS011;58263;48.146;11.440;2024-01-06T13:01:15;5.23;;;2.80;;
70683;SDS011;58263;48.146;11.440;2024-01-06T13:03:40;4.43;;;3.17;;
70683;SDS011;58263;48.146;11.440;2024-01-06T13:06:06;4.20;;;2.80;;
70683;SDS011;58263;48.146;11.440;2024-01-06T13:08:31;5.40;;;2.83;;
70683;SDS011;58263;48.146;11.440;2024-01-06T13:10:57;6.50;;;2.67;;
70683;SDS011;58263;48.146;11.440;2024-01-06T13:13:22;4.43;;;3.00;;
70683;SDS011;58263;48.146;11.440;2024-01-06T13:15:47;6.13;;;2.83;;
70683;SDS011;58263;48.146;11.440;2024-01-06T13:18:13;5.37;;;2.73;;
70683;SDS011;58263;48.146;11.440;2024-01-06T13:20:38;6.43;;;3.00;;
70683;SDS011;58263;48.146;11.440;2024-01-06T13:23:05;8.77;;;3.05;;
70683;SDS011;58263;48.146;11.440;2024-01-06T13:25:31;3.47;;;2.80;;
70683;SDS011;58263;48.146;11.440;2024-01-06T13:27:57;4.22;;;2.60;;
70683;SDS011;58263;48.146;11.440;2024-01-06T13:30:22;5.60;;;2.80;;
70683;SDS011;58263;48.146;11.440;2024-01-06T13:32:48;9.37;;;3.00;;
70683;SDS011;58263;48.146;11.440;2024-01-06T13:35:15;5.95;;;2.85;;
70683;SDS011;58263;48.146;11.440;2024-01-06T13:37:41;4.25;;;2.47;;
70683;SDS011;58263;48.146;11.440;2024-01-06T13:40:07;4.35;;;2.80;;
70683;SDS011;58263;48.146;11.440;2024-01-06T13:42:33;3.88;;;2.97;;
70683;SDS011;58263;48.146;11.440;2024-01-06T13:44:59;3.85;;;2.88;;
70683;SDS011;58263;48.146;11.440;2024-01-06T13:47:28;3.03;;;2.55;;
70683;SDS011;58263;48.146;11.440;2024-01-06T13:49:53;7.07;;;3.00;;
70683;SDS011;58263;48.146;11.440;2024-01-06T13:52:21;5.00;;;2.88;;
70683;SDS011;58263;48.146;11.440;2024-01-06T13:54:46;5.77;;;3.00;;
70683;SDS011;58263;48.146;11.440;2024-01-06T13:57:12;3.65;;;2.67;;
70683;SDS011;58263;48.146;11.440;2024-01-06T13:59:37;4.70;;;2.60;;
70683;SDS011;58263;48.146;11.440;2024-01-06T14:02:07;3.38;;;2.75;;
70683;SDS011;58263;48.146;11.440;2024-01-06T14:04:33;6.35;;;3.50;;
70683;SDS011;58263;48.146;11.440;2024-01-06T14:06:58;4.17;;;3.10;;
70683;SDS011;58263;48.146;11.440;2024-01-06T14:09:23;5.82;;;3.28;;
70683;SDS011;58263;48.146;11.440;2024-01-06T14:11:49;7.95;;;3.63;;
70683;SDS011;58263;48.146;11.440;2024-01-06T14:14:14;6.17;;;3.73;;
70683;SDS011;58263;48.146;11.440;2024-01-06T14:16:39;7.43;;;3.03;;
70683;SDS011;58263;48.146;11.440;2024-01-06T14:19:05;3.80;;;2.83;;
70683;SDS011;58263;48.146;11.440;2024-01-06T14:21:30;6.07;;;3.20;;
70683;SDS011;58263;48.146;11.440;2024-01-06T14:23:55;4.87;;;3.17;;
70683;SDS011;58263;48.146;11.440;2024-01-06T14:26:20;6.27;;;3.53;;
70683;SDS011;58263;48.146;11.440;2024-01-06T14:28:46;8.20;;;4.27;;
70683;SDS011;58263;48.146;11.440;2024-01-06T14:31:12;8.20;;;5.20;;